METAR AND TAF INFORMATION
METAR FOR YPDN
ADDS - METARS form results

(2310 UTC 22 May 2018)
Data provider http://aviationweather.gov/adds/metars/
 
METAR text: YPDN 222300Z 13010KT CAVOK 25/13 Q1014 NOSIG
Conditions at: YPDN (DARWIN (CIV/MIL), AU) observed 2300 UTC 22 May 2018
Temperature: 25.0°C (77°F)
Dewpoint: 13.0°C (55°F) [RH = 47%]
Pressure (altimeter): 29.94 inches Hg (1014.0 mb)
Winds: from the SE (130 degrees) at 12 MPH (10 knots; 5.2 m/s)
Visibility: 6 or more miles (10+ km)
Ceiling: ceiling and visibility are OK
Clouds: unknown
Weather: no significant weather observed at this time

METAR text: YPDN 222230Z 14007KT CAVOK 24/13 Q1014 NOSIG
Conditions at: YPDN (DARWIN (CIV/MIL), AU) observed 2230 UTC 22 May 2018
Temperature: 24.0°C (75°F)
Dewpoint: 13.0°C (55°F) [RH = 50%]
Pressure (altimeter): 29.94 inches Hg (1014.0 mb)
Winds: from the SE (140 degrees) at 8 MPH (7 knots; 3.6 m/s)
Visibility: 6 or more miles (10+ km)
Ceiling: ceiling and visibility are OK
Clouds: unknown
Weather: no significant weather observed at this time

Forecast for: YPDN (DARWIN (CIV/MIL), AU)
Text: TAF YPDN 221701Z 2218/2324 13008KT CAVOK
Forecast period: 1800 UTC 22 May 2018 to 0000 UTC 23 May 2018
Forecast type: FROM: standard forecast or significant change
Winds: from the SE (130 degrees) at 9 MPH (8 knots; 4.2 m/s)
Visibility: 6 or more miles (10+ km)
Clouds: not forecast
Weather: NSW  (no significant weather)
Forecast for: YPDN (DARWIN (CIV/MIL), AU)
Text: TAF YPDN 221701Z 2218/2324 13008KT CAVOK
Forecast period: 1800 UTC 22 May 2018 to 0000 UTC 23 May 2018
Forecast type: FROM: standard forecast or significant change
Winds: from the SE (130 degrees) at 9 MPH (8 knots; 4.2 m/s)
Visibility: 6 or more miles (10+ km)
Clouds: not forecast
Weather: NSW  (no significant weather)
Forecast for: YPDN (DARWIN (CIV/MIL), AU)
Text: TAF YPDN 221701Z 2218/2324 13008KT CAVOK
Forecast period: 0000 to 0600 UTC 23 May 2018
Forecast type: FROM: standard forecast or significant change
Winds: from the ESE (110 degrees) at 16 MPH (14 knots; 7.3 m/s)
Visibility: 6 or more miles (10+ km)
Clouds: not forecast
Weather: NSW  (no significant weather)
Forecast for: YPDN (DARWIN (CIV/MIL), AU)
Text: TAF YPDN 221701Z 2218/2324 13008KT CAVOK
Forecast period: 0000 to 0600 UTC 23 May 2018
Forecast type: FROM: standard forecast or significant change
Winds: from the ESE (110 degrees) at 16 MPH (14 knots; 7.3 m/s)
Visibility: 6 or more miles (10+ km)
Clouds: not forecast
Weather: NSW  (no significant weather)
Forecast for: YPDN (DARWIN (CIV/MIL), AU)
Text: TAF YPDN 221701Z 2218/2324 13008KT CAVOK
Forecast period: 0600 to 1200 UTC 23 May 2018
Forecast type: FROM: standard forecast or significant change
Winds: from the E (80 degrees) at 8 MPH (7 knots; 3.6 m/s)
Visibility: 6 or more miles (10+ km)
Clouds: not forecast
Weather: NSW  (no significant weather)
Forecast for: YPDN (DARWIN (CIV/MIL), AU)
Text: TAF YPDN 221701Z 2218/2324 13008KT CAVOK
Forecast period: 0600 to 1200 UTC 23 May 2018
Forecast type: FROM: standard forecast or significant change
Winds: from the E (80 degrees) at 8 MPH (7 knots; 3.6 m/s)
Visibility: 6 or more miles (10+ km)
Clouds: not forecast
Weather: NSW  (no significant weather)
Forecast for: YPDN (DARWIN (CIV/MIL), AU)
Text: TAF YPDN 221701Z 2218/2324 13008KT CAVOK
Forecast period: 1200 UTC 23 May 2018 to 0000 UTC 24 May 2018
Forecast type: FROM: standard forecast or significant change
Winds: from the SE (130 degrees) at 7 MPH (6 knots; 3.1 m/s)
Visibility: 6 or more miles (10+ km)
Clouds: not forecast
Weather: NSW  (no significant weather)
Forecast for: YPDN (DARWIN (CIV/MIL), AU)
Text: TAF YPDN 221701Z 2218/2324 13008KT CAVOK
Forecast period: 1200 UTC 23 May 2018 to 0000 UTC 24 May 2018
Forecast type: FROM: standard forecast or significant change
Winds: from the SE (130 degrees) at 7 MPH (6 knots; 3.1 m/s)
Visibility: 6 or more miles (10+ km)
Clouds: not forecast
Weather: NSW  (no significant weather)

 AIRPORT MAP

 RUNWAY INFORMATION
Runway 11 Runway length 11004 ft Runway width 197 ft
Runway elevation 96 ft Runway displaced threshold 0 ft Runway heading 109
Runway 29 Runway length 11004 ft Runway width 197 ft
Runway elevation 81 ft Runway displaced threshold 0 ft Runway heading 289
Runway 18 Runway length 5000 ft Runway width 98 ft
Runway elevation 96 ft Runway displaced threshold 0 ft Runway heading 180
Runway 36 Runway length 5000 ft Runway width 98 ft
Runway elevation 91 ft Runway displaced threshold 0 ft Runway heading 360

 AIRPORT FREQUENCIES
Type A/D Name APP Frequency 125.2 MHZ
Type ARTC Name BRISBANE C Frequency 118.15 MHZ
Type ATIS Name ATIS Frequency 112.6 MHZ
Type CLD Name CLNC DEL Frequency 126.8 MHZ
Type DEP Name DEP Frequency 123 MHZ
Type GND Name GND Frequency 121.8 MHZ
Type MISC Name RAAF AIR O Frequency 897.4 MHZ
Type TWR Name TWR Frequency 133.1 MHZ

 AIRPORT NEAR NAVIGATION AIDS
Type NDB Name Bagot Frequency 308 KHZ
Type TACAN Name Darwin Frequency 113700 KHZ
Type VOR-DME Name Darwin Frequency 112600 KHZ
Type NDB Name Darwin Frequency 344 KHZ
Type NDB Name Howard Springs Frequency 257 KHZ



Powered by Virtual Airlines Manager [v2.6.2]